sensor_id;sensor_type;location;lat;lon;timestamp;noise_LAeq;noise_LA_min;noise_LA_max;noise_LA01;noise_LA95
43938;Laerm;71382;47.750;10.226;2023-08-20T00:00:16;30.43;29.30;37.17;;
43938;Laerm;71382;47.750;10.226;2023-08-20T00:02:42;30.76;29.55;38.78;;
43938;Laerm;71382;47.750;10.226;2023-08-20T00:05:08;30.74;29.80;34.97;;
43938;Laerm;71382;47.750;10.226;2023-08-20T00:07:34;30.19;29.40;34.62;;
43938;Laerm;71382;47.750;10.226;2023-08-20T00:10:00;30.37;29.31;34.31;;
43938;Laerm;71382;47.750;10.226;2023-08-20T00:12:25;30.14;29.32;32.00;;
43938;Laerm;71382;47.750;10.226;2023-08-20T00:14:52;30.05;29.34;33.72;;
43938;Laerm;71382;47.750;10.226;2023-08-20T00:17:21;29.99;29.34;31.49;;
43938;Laerm;71382;47.750;10.226;2023-08-20T00:19:47;30.57;29.46;38.44;;
43938;Laerm;71382;47.750;10.226;2023-08-20T00:22:13;30.01;29.38;32.14;;
43938;Laerm;71382;47.750;10.226;2023-08-20T00:24:39;31.92;29.20;42.04;;
43938;Laerm;71382;47.750;10.226;2023-08-20T00:27:05;30.37;29.45;35.97;;
43938;Laerm;71382;47.750;10.226;2023-08-20T00:29:30;30.00;29.29;31.45;;
43938;Laerm;71382;47.750;10.226;2023-08-20T00:31:55;30.00;29.27;32.69;;
43938;Laerm;71382;47.750;10.226;2023-08-20T00:34:21;29.98;29.36;36.56;;
43938;Laerm;71382;47.750;10.226;2023-08-20T00:36:47;29.97;29.26;30.86;;
43938;Laerm;71382;47.750;10.226;2023-08-20T00:39:13;30.12;29.30;37.46;;
43938;Laerm;71382;47.750;10.226;2023-08-20T00:41:40;29.96;29.18;31.42;;
43938;Laerm;71382;47.750;10.226;2023-08-20T00:44:05;30.04;29.45;32.27;;
43938;Laerm;71382;47.750;10.226;2023-08-20T00:46:31;33.01;29.44;44.44;;
43938;Laerm;71382;47.750;10.226;2023-08-20T00:48:57;30.03;29.31;31.34;;
43938;Laerm;71382;47.750;10.226;2023-08-20T00:51:22;29.97;29.26;33.94;;
43938;Laerm;71382;47.750;10.226;2023-08-20T00:53:48;30.06;29.36;37.70;;
43938;Laerm;71382;47.750;10.226;2023-08-20T00:56:15;30.05;29.26;32.32;;
43938;Laerm;71382;47.750;10.226;2023-08-20T00:58:40;29.96;29.36;31.44;;
43938;Laerm;71382;47.750;10.226;2023-08-20T01:01:06;30.02;29.28;31.74;;
43938;Laerm;71382;47.750;10.226;2023-08-20T01:03:31;40.80;29.32;59.60;;
43938;Laerm;71382;47.750;10.226;2023-08-20T01:06:00;32.31;29.36;50.58;;
43938;Laerm;71382;47.750;10.226;2023-08-20T01:08:32;30.01;29.35;36.35;;
43938;Laerm;71382;47.750;10.226;2023-08-20T01:11:22;29.98;29.36;30.58;;
43938;Laerm;71382;47.750;10.226;2023-08-20T01:13:50;32.69;29.43;45.25;;
43938;Laerm;71382;47.750;10.226;2023-08-20T01:16:15;29.99;29.35;30.65;;
43938;Laerm;71382;47.750;10.226;2023-08-20T01:18:41;30.01;29.35;30.48;;
43938;Laerm;71382;47.750;10.226;2023-08-20T01:21:12;30.01;29.36;31.39;;
43938;Laerm;71382;47.750;10.226;2023-08-20T01:23:57;29.98;29.34;30.70;;
43938;Laerm;71382;47.750;10.226;2023-08-20T01:29:11;30.43;29.02;47.91;;
43938;Laerm;71382;47.750;10.226;2023-08-20T01:31:37;30.22;29.35;43.75;;
43938;Laerm;71382;47.750;10.226;2023-08-20T01:34:03;30.03;29.27;30.90;;
43938;Laerm;71382;47.750;10.226;2023-08-20T01:36:29;29.99;29.12;30.59;;
43938;Laerm;71382;47.750;10.226;2023-08-20T01:38:55;30.18;29.15;34.40;;
43938;Laerm;71382;47.750;10.226;2023-08-20T01:41:20;40.86;29.76;55.02;;
43938;Laerm;71382;47.750;10.226;2023-08-20T01:43:46;35.55;29.35;50.25;;
43938;Laerm;71382;47.750;10.226;2023-08-20T01:46:11;30.10;29.47;33.58;;
43938;Laerm;71382;47.750;10.226;2023-08-20T01:48:38;33.41;29.36;46.87;;
43938;Laerm;71382;47.750;10.226;2023-08-20T01:51:03;30.14;28.88;37.67;;
43938;Laerm;71382;47.750;10.226;2023-08-20T01:53:29;30.00;29.14;31.05;;
43938;Laerm;71382;47.750;10.226;2023-08-20T01:55:55;29.97;29.31;30.86;;
43938;Laerm;71382;47.750;10.226;2023-08-20T01:58:20;33.67;28.88;46.43;;
43938;Laerm;71382;47.750;10.226;2023-08-20T02:00:45;36.30;29.45;51.53;;
43938;Laerm;71382;47.750;10.226;2023-08-20T02:03:11;30.08;29.10;30.80;;
43938;Laerm;71382;47.750;10.226;2023-08-20T02:05:37;30.02;29.33;33.95;;
43938;Laerm;71382;47.750;10.226;2023-08-20T02:08:04;29.98;29.39;32.05;;
43938;Laerm;71382;47.750;10.226;2023-08-20T02:10:31;29.98;29.33;30.53;;
43938;Laerm;71382;47.750;10.226;2023-08-20T02:12:57;29.98;29.29;30.67;;
43938;Laerm;71382;47.750;10.226;2023-08-20T02:15:23;30.04;29.36;31.11;;
43938;Laerm;71382;47.750;10.226;2023-08-20T02:17:49;30.01;29.38;31.57;;
43938;Laerm;71382;47.750;10.226;2023-08-20T02:20:15;29.98;29.36;30.50;;
43938;Laerm;71382;47.750;10.226;2023-08-20T02:22:40;29.98;29.34;30.59;;
43938;Laerm;71382;47.750;10.226;2023-08-20T02:25:08;30.03;29.39;33.17;;
43938;Laerm;71382;47.750;10.226;2023-08-20T02:27:33;29.99;29.30;31.75;;
43938;Laerm;71382;47.750;10.226;2023-08-20T02:29:59;30.00;29.17;34.76;;
43938;Laerm;71382;47.750;10.226;2023-08-20T02:32:24;30.01;29.23;30.63;;
43938;Laerm;71382;47.750;10.226;2023-08-20T02:34:53;30.02;29.43;30.59;;
43938;Laerm;71382;47.750;10.226;2023-08-20T02:37:25;30.02;29.38;30.54;;
43938;Laerm;71382;47.750;10.226;2023-08-20T02:39:50;30.02;29.42;30.66;;
43938;Laerm;71382;47.750;10.226;2023-08-20T02:42:16;30.05;29.51;31.22;;
43938;Laerm;71382;47.750;10.226;2023-08-20T02:44:41;30.03;29.29;31.24;;
43938;Laerm;71382;47.750;10.226;2023-08-20T02:47:07;30.03;29.37;30.62;;
43938;Laerm;71382;47.750;10.226;2023-08-20T02:49:32;30.04;29.38;30.61;;
43938;Laerm;71382;47.750;10.226;2023-08-20T02:51:58;30.03;29.33;31.60;;
43938;Laerm;71382;47.750;10.226;2023-08-20T02:54:23;30.25;29.50;32.65;;
43938;Laerm;71382;47.750;10.226;2023-08-20T02:56:51;31.55;29.53;37.02;;
43938;Laerm;71382;47.750;10.226;2023-08-20T02:59:16;30.07;29.38;30.72;;
43938;Laerm;71382;47.750;10.226;2023-08-20T03:01:42;30.02;29.27;30.96;;
43938;Laerm;71382;47.750;10.226;2023-08-20T03:04:07;30.16;29.35;30.86;;
43938;Laerm;71382;47.750;10.226;2023-08-20T03:06:33;35.15;29.43;52.25;;
43938;Laerm;71382;47.750;10.226;2023-08-20T03:08:58;36.74;29.34;52.50;;
43938;Laerm;71382;47.750;10.226;2023-08-20T03:11:24;33.14;29.54;45.76;;
43938;Laerm;71382;47.750;10.226;2023-08-20T03:13:49;36.56;29.65;49.32;;
43938;Laerm;71382;47.750;10.226;2023-08-20T03:16:15;30.75;29.42;39.38;;
43938;Laerm;71382;47.750;10.226;2023-08-20T03:18:40;29.97;29.29;31.58;;
43938;Laerm;71382;47.750;10.226;2023-08-20T03:21:06;29.97;29.26;31.63;;
43938;Laerm;71382;47.750;10.226;2023-08-20T03:23:31;30.51;29.28;32.44;;
43938;Laerm;71382;47.750;10.226;2023-08-20T03:25:57;30.63;29.88;31.63;;
43938;Laerm;71382;47.750;10.226;2023-08-20T03:28:23;30.70;29.91;31.90;;
43938;Laerm;71382;47.750;10.226;2023-08-20T03:30:49;33.56;30.18;45.02;;
43938;Laerm;71382;47.750;10.226;2023-08-20T03:33:17;38.66;30.21;56.30;;
43938;Laerm;71382;47.750;10.226;2023-08-20T03:35:42;34.99;30.47;47.16;;
43938;Laerm;71382;47.750;10.226;2023-08-20T03:38:08;32.43;30.28;41.72;;
43938;Laerm;71382;47.750;10.226;2023-08-20T03:40:33;30.91;30.07;31.90;;
43938;Laerm;71382;47.750;10.226;2023-08-20T03:42:59;34.77;30.28;46.06;;
43938;Laerm;71382;47.750;10.226;2023-08-20T03:45:25;34.71;31.91;45.32;;
43938;Laerm;71382;47.750;10.226;2023-08-20T03:47:51;33.76;31.58;37.51;;
43938;Laerm;71382;47.750;10.226;2023-08-20T03:50:17;34.74;32.28;43.16;;
43938;Laerm;71382;47.750;10.226;2023-08-20T03:52:44;33.76;31.79;36.71;;
43938;Laerm;71382;47.750;10.226;2023-08-20T03:55:10;33.61;31.59;37.06;;
43938;Laerm;71382;47.750;10.226;2023-08-20T03:57:35;32.71;31.17;34.52;;
43938;Laerm;71382;47.750;10.226;2023-08-20T04:00:01;31.96;30.94;33.02;;
43938;Laerm;71382;47.750;10.226;2023-08-20T04:02:41;33.48;30.99;37.28;;
43938;Laerm;71382;47.750;10.226;2023-08-20T04:05:07;35.00;31.81;45.64;;
43938;Laerm;71382;47.750;10.226;2023-08-20T04:07:32;32.60;31.35;35.84;;
43938;Laerm;71382;47.750;10.226;2023-08-20T04:09:59;32.93;31.74;35.95;;
43938;Laerm;71382;47.750;10.226;2023-08-20T04:12:24;32.79;31.16;34.17;;
43938;Laerm;71382;47.750;10.226;2023-08-20T04:14:50;36.91;31.63;51.52;;
43938;Laerm;71382;47.750;10.226;2023-08-20T04:17:16;37.34;31.47;48.24;;
43938;Laerm;71382;47.750;10.226;2023-08-20T04:19:41;34.20;30.90;44.92;;
43938;Laerm;71382;47.750;10.226;2023-08-20T04:22:06;33.97;31.36;43.64;;
43938;Laerm;71382;47.750;10.226;2023-08-20T04:24:32;45.32;31.30;60.76;;
43938;Laerm;71382;47.750;10.226;2023-08-20T04:26:57;32.85;31.11;38.75;;
43938;Laerm;71382;47.750;10.226;2023-08-20T04:29:25;34.84;30.93;46.61;;
43938;Laerm;71382;47.750;10.226;2023-08-20T04:31:52;34.47;31.09;47.57;;
43938;Laerm;71382;47.750;10.226;2023-08-20T04:34:18;32.20;31.02;34.95;;
43938;Laerm;71382;47.750;10.226;2023-08-20T04:36:47;34.60;30.94;46.18;;
43938;Laerm;71382;47.750;10.226;2023-08-20T04:39:13;32.37;31.12;35.65;;
43938;Laerm;71382;47.750;10.226;2023-08-20T04:41:43;40.15;30.96;55.62;;
43938;Laerm;71382;47.750;10.226;2023-08-20T04:44:13;35.46;30.93;46.52;;
43938;Laerm;71382;47.750;10.226;2023-08-20T04:46:38;32.53;31.18;34.65;;
43938;Laerm;71382;47.750;10.226;2023-08-20T04:49:04;33.02;31.77;36.94;;
43938;Laerm;71382;47.750;10.226;2023-08-20T04:51:29;33.61;31.85;37.64;;
43938;Laerm;71382;47.750;10.226;2023-08-20T04:53:55;34.74;31.14;44.43;;
43938;Laerm;71382;47.750;10.226;2023-08-20T04:56:21;32.38;30.69;36.42;;
43938;Laerm;71382;47.750;10.226;2023-08-20T04:58:46;31.81;30.43;41.94;;
43938;Laerm;71382;47.750;10.226;2023-08-20T05:01:16;31.50;30.18;36.59;;
43938;Laerm;71382;47.750;10.226;2023-08-20T05:03:42;32.21;30.65;35.76;;
43938;Laerm;71382;47.750;10.226;2023-08-20T05:06:07;32.09;30.81;36.99;;
43938;Laerm;71382;47.750;10.226;2023-08-20T05:08:33;32.03;30.45;45.31;;
43938;Laerm;71382;47.750;10.226;2023-08-20T05:11:00;33.33;30.56;39.08;;
43938;Laerm;71382;47.750;10.226;2023-08-20T05:13:26;33.70;30.94;41.41;;
43938;Laerm;71382;47.750;10.226;2023-08-20T05:15:52;36.56;31.29;44.64;;
43938;Laerm;71382;47.750;10.226;2023-08-20T05:18:17;36.18;30.81;48.93;;
43938;Laerm;71382;47.750;10.226;2023-08-20T05:20:43;34.20;31.13;43.36;;
43938;Laerm;71382;47.750;10.226;2023-08-20T05:23:09;32.53;31.41;36.68;;
43938;Laerm;71382;47.750;10.226;2023-08-20T05:25:35;36.31;31.51;45.73;;
43938;Laerm;71382;47.750;10.226;2023-08-20T05:28:00;33.69;30.87;41.58;;
43938;Laerm;71382;47.750;10.226;2023-08-20T05:30:26;32.20;31.02;36.40;;
43938;Laerm;71382;47.750;10.226;2023-08-20T05:32:53;32.08;30.81;36.26;;
43938;Laerm;71382;47.750;10.226;2023-08-20T05:35:20;40.20;31.14;53.16;;
43938;Laerm;71382;47.750;10.226;2023-08-20T05:37:47;33.46;30.91;42.29;;
43938;Laerm;71382;47.750;10.226;2023-08-20T05:40:13;32.32;30.98;36.51;;
43938;Laerm;71382;47.750;10.226;2023-08-20T05:42:38;32.83;30.77;39.87;;
43938;Laerm;71382;47.750;10.226;2023-08-20T05:45:05;36.83;30.72;48.00;;
43938;Laerm;71382;47.750;10.226;2023-08-20T05:47:32;39.24;30.59;50.73;;
43938;Laerm;71382;47.750;10.226;2023-08-20T05:49:57;42.99;32.00;51.71;;
43938;Laerm;71382;47.750;10.226;2023-08-20T05:52:23;36.35;30.79;47.84;;
43938;Laerm;71382;47.750;10.226;2023-08-20T05:54:49;34.04;30.55;42.52;;
43938;Laerm;71382;47.750;10.226;2023-08-20T05:57:14;35.62;31.15;47.70;;
43938;Laerm;71382;47.750;10.226;2023-08-20T05:59:40;34.22;30.24;42.72;;
43938;Laerm;71382;47.750;10.226;2023-08-20T06:02:06;35.14;30.07;47.78;;
43938;Laerm;71382;47.750;10.226;2023-08-20T06:04:31;37.79;30.17;49.93;;
43938;Laerm;71382;47.750;10.226;2023-08-20T06:06:57;35.35;30.16;45.20;;
43938;Laerm;71382;47.750;10.226;2023-08-20T06:09:23;45.83;30.18;63.60;;
43938;Laerm;71382;47.750;10.226;2023-08-20T06:11:48;34.26;30.00;47.54;;
43938;Laerm;71382;47.750;10.226;2023-08-20T06:14:14;30.95;29.94;32.67;;
43938;Laerm;71382;47.750;10.226;2023-08-20T06:16:40;33.19;29.96;45.10;;
43938;Laerm;71382;47.750;10.226;2023-08-20T06:19:05;36.95;30.47;48.93;;
43938;Laerm;71382;47.750;10.226;2023-08-20T06:21:31;34.53;29.82;46.76;;
43938;Laerm;71382;47.750;10.226;2023-08-20T06:23:56;45.00;30.19;59.96;;
43938;Laerm;71382;47.750;10.226;2023-08-20T06:26:22;33.50;30.02;43.34;;
43938;Laerm;71382;47.750;10.226;2023-08-20T06:28:48;43.16;30.65;60.61;;
43938;Laerm;71382;47.750;10.226;2023-08-20T06:31:13;35.35;30.30;44.70;;
43938;Laerm;71382;47.750;10.226;2023-08-20T06:33:38;34.34;30.21;44.06;;
43938;Laerm;71382;47.750;10.226;2023-08-20T06:36:04;47.21;30.04;60.70;;
43938;Laerm;71382;47.750;10.226;2023-08-20T06:38:29;33.49;30.13;42.87;;
43938;Laerm;71382;47.750;10.226;2023-08-20T06:40:55;34.87;29.89;47.56;;
43938;Laerm;71382;47.750;10.226;2023-08-20T06:43:21;39.87;30.02;52.76;;
43938;Laerm;71382;47.750;10.226;2023-08-20T06:45:47;35.41;29.92;49.38;;
43938;Laerm;71382;47.750;10.226;2023-08-20T06:48:12;31.96;29.24;39.55;;
43938;Laerm;71382;47.750;10.226;2023-08-20T06:50:38;37.06;29.75;49.06;;
43938;Laerm;71382;47.750;10.226;2023-08-20T06:53:03;35.74;29.17;46.96;;
43938;Laerm;71382;47.750;10.226;2023-08-20T06:55:30;36.69;29.96;49.47;;
43938;Laerm;71382;47.750;10.226;2023-08-20T06:57:56;35.62;29.93;46.23;;
43938;Laerm;71382;47.750;10.226;2023-08-20T07:00:21;43.43;30.22;58.31;;
43938;Laerm;71382;47.750;10.226;2023-08-20T07:02:47;38.37;30.12;48.74;;
43938;Laerm;71382;47.750;10.226;2023-08-20T07:05:12;33.78;29.99;46.58;;
43938;Laerm;71382;47.750;10.226;2023-08-20T07:07:40;33.95;30.21;45.01;;
43938;Laerm;71382;47.750;10.226;2023-08-20T07:10:06;44.20;30.44;53.34;;
43938;Laerm;71382;47.750;10.226;2023-08-20T07:12:31;40.75;32.42;51.06;;
43938;Laerm;71382;47.750;10.226;2023-08-20T07:14:57;37.73;30.64;45.96;;
43938;Laerm;71382;47.750;10.226;2023-08-20T07:17:22;45.32;30.39;54.85;;
43938;Laerm;71382;47.750;10.226;2023-08-20T07:19:48;36.47;30.54;45.81;;
43938;Laerm;71382;47.750;10.226;2023-08-20T07:22:13;40.83;30.06;57.27;;
43938;Laerm;71382;47.750;10.226;2023-08-20T07:24:39;34.29;29.84;45.71;;
43938;Laerm;71382;47.750;10.226;2023-08-20T07:27:10;34.56;29.80;47.35;;
43938;Laerm;71382;47.750;10.226;2023-08-20T07:29:39;37.41;29.84;48.22;;
43938;Laerm;71382;47.750;10.226;2023-08-20T07:32:05;41.62;30.67;56.13;;
43938;Laerm;71382;47.750;10.226;2023-08-20T07:34:30;45.35;30.13;58.23;;
43938;Laerm;71382;47.750;10.226;2023-08-20T07:36:56;34.55;29.80;41.79;;
43938;Laerm;71382;47.750;10.226;2023-08-20T07:39:22;38.24;30.60;48.47;;
43938;Laerm;71382;47.750;10.226;2023-08-20T07:41:47;40.09;30.22;56.10;;
43938;Laerm;71382;47.750;10.226;2023-08-20T07:44:13;36.11;30.41;47.81;;
43938;Laerm;71382;47.750;10.226;2023-08-20T07:46:39;39.57;29.99;50.61;;
43938;Laerm;71382;47.750;10.226;2023-08-20T07:49:04;40.50;30.47;49.92;;
43938;Laerm;71382;47.750;10.226;2023-08-20T07:51:30;40.78;29.74;54.54;;
43938;Laerm;71382;47.750;10.226;2023-08-20T07:54:01;39.97;29.86;51.50;;
43938;Laerm;71382;47.750;10.226;2023-08-20T07:56:26;46.68;30.06;55.60;;
43938;Laerm;71382;47.750;10.226;2023-08-20T07:58:52;39.84;30.38;52.04;;
43938;Laerm;71382;47.750;10.226;2023-08-20T08:01:18;39.12;29.92;50.78;;
43938;Laerm;71382;47.750;10.226;2023-08-20T08:03:43;39.63;30.24;49.30;;
43938;Laerm;71382;47.750;10.226;2023-08-20T08:06:09;33.71;30.03;46.00;;
43938;Laerm;71382;47.750;10.226;2023-08-20T08:08:34;47.73;30.16;61.75;;
43938;Laerm;71382;47.750;10.226;2023-08-20T08:11:00;44.91;30.23;59.17;;
43938;Laerm;71382;47.750;10.226;2023-08-20T08:13:25;38.47;29.97;47.46;;
43938;Laerm;71382;47.750;10.226;2023-08-20T08:15:52;40.18;31.64;49.20;;
43938;Laerm;71382;47.750;10.226;2023-08-20T08:18:18;43.62;31.04;57.73;;
43938;Laerm;71382;47.750;10.226;2023-08-20T08:20:43;35.66;29.82;49.49;;
43938;Laerm;71382;47.750;10.226;2023-08-20T08:23:09;47.14;30.26;63.23;;
43938;Laerm;71382;47.750;10.226;2023-08-20T08:25:35;38.42;30.86;47.00;;
43938;Laerm;71382;47.750;10.226;2023-08-20T08:28:00;42.00;32.78;53.56;;
43938;Laerm;71382;47.750;10.226;2023-08-20T08:30:26;39.42;30.90;48.37;;
43938;Laerm;71382;47.750;10.226;2023-08-20T08:32:51;50.70;30.84;66.56;;
43938;Laerm;71382;47.750;10.226;2023-08-20T08:35:17;44.01;29.95;58.69;;
43938;Laerm;71382;47.750;10.226;2023-08-20T08:37:43;37.71;29.98;47.92;;
43938;Laerm;71382;47.750;10.226;2023-08-20T08:40:08;41.64;30.07;55.94;;
43938;Laerm;71382;47.750;10.226;2023-08-20T08:42:34;43.97;30.47;52.77;;
43938;Laerm;71382;47.750;10.226;2023-08-20T08:45:00;37.29;29.83;49.48;;
43938;Laerm;71382;47.750;10.226;2023-08-20T08:47:25;35.88;30.23;46.03;;
43938;Laerm;71382;47.750;10.226;2023-08-20T08:49:51;40.71;29.87;51.73;;
43938;Laerm;71382;47.750;10.226;2023-08-20T08:52:17;47.65;29.95;61.78;;
43938;Laerm;71382;47.750;10.226;2023-08-20T08:54:45;40.98;30.54;53.21;;
43938;Laerm;71382;47.750;10.226;2023-08-20T08:57:11;40.34;30.68;53.18;;
43938;Laerm;71382;47.750;10.226;2023-08-20T08:59:36;47.92;31.49;60.11;;
43938;Laerm;71382;47.750;10.226;2023-08-20T09:02:08;37.61;29.87;46.75;;
43938;Laerm;71382;47.750;10.226;2023-08-20T09:04:34;36.25;29.85;48.05;;
43938;Laerm;71382;47.750;10.226;2023-08-20T09:07:03;36.36;30.30;46.88;;
43938;Laerm;71382;47.750;10.226;2023-08-20T09:09:29;38.74;30.49;54.49;;
43938;Laerm;71382;47.750;10.226;2023-08-20T09:11:54;54.25;29.86;69.18;;
43938;Laerm;71382;47.750;10.226;2023-08-20T09:14:24;40.16;30.26;51.52;;
43938;Laerm;71382;47.750;10.226;2023-08-20T09:16:53;41.40;29.86;56.71;;
43938;Laerm;71382;47.750;10.226;2023-08-20T09:19:19;38.53;29.85;49.26;;
43938;Laerm;71382;47.750;10.226;2023-08-20T09:21:45;35.12;29.78;47.12;;
43938;Laerm;71382;47.750;10.226;2023-08-20T09:24:12;40.02;30.07;64.48;;
43938;Laerm;71382;47.750;10.226;2023-08-20T09:26:37;40.20;30.29;54.94;;
43938;Laerm;71382;47.750;10.226;2023-08-20T09:29:03;34.54;29.82;47.16;;
43938;Laerm;71382;47.750;10.226;2023-08-20T09:31:39;40.45;30.54;50.82;;
43938;Laerm;71382;47.750;10.226;2023-08-20T09:34:04;36.24;30.11;46.41;;
43938;Laerm;71382;47.750;10.226;2023-08-20T09:36:34;44.13;30.39;59.78;;
43938;Laerm;71382;47.750;10.226;2023-08-20T09:39:03;46.97;30.60;61.81;;
43938;Laerm;71382;47.750;10.226;2023-08-20T09:41:28;38.09;30.18;48.41;;
43938;Laerm;71382;47.750;10.226;2023-08-20T09:43:56;47.83;30.92;61.25;;
43938;Laerm;71382;47.750;10.226;2023-08-20T09:46:23;38.80;30.17;51.45;;
43938;Laerm;71382;47.750;10.226;2023-08-20T09:48:52;36.23;30.29;48.28;;
43938;Laerm;71382;47.750;10.226;2023-08-20T09:51:24;41.76;30.31;56.50;;
43938;Laerm;71382;47.750;10.226;2023-08-20T09:56:35;40.69;30.01;53.41;;
43938;Laerm;71382;47.750;10.226;2023-08-20T09:59:02;35.55;29.78;46.32;;
43938;Laerm;71382;47.750;10.226;2023-08-20T10:01:29;37.61;29.99;48.59;;
43938;Laerm;71382;47.750;10.226;2023-08-20T10:03:55;40.23;31.20;48.04;;
43938;Laerm;71382;47.750;10.226;2023-08-20T10:06:21;37.75;29.99;51.20;;
43938;Laerm;71382;47.750;10.226;2023-08-20T10:08:48;38.70;29.79;50.60;;
43938;Laerm;71382;47.750;10.226;2023-08-20T10:11:14;38.29;29.70;50.87;;
43938;Laerm;71382;47.750;10.226;2023-08-20T10:13:40;44.29;30.26;60.85;;
43938;Laerm;71382;47.750;10.226;2023-08-20T10:16:06;45.49;30.43;60.60;;
43938;Laerm;71382;47.750;10.226;2023-08-20T10:18:34;43.44;31.09;55.73;;
43938;Laerm;71382;47.750;10.226;2023-08-20T10:21:00;44.97;31.32;56.00;;
43938;Laerm;71382;47.750;10.226;2023-08-20T10:23:26;43.14;30.49;56.69;;
43938;Laerm;71382;47.750;10.226;2023-08-20T10:25:52;37.79;30.33;50.02;;
43938;Laerm;71382;47.750;10.226;2023-08-20T10:28:26;39.54;30.70;50.78;;
43938;Laerm;71382;47.750;10.226;2023-08-20T10:31:09;30.77;29.63;35.31;;
43938;Laerm;71382;47.750;10.226;2023-08-20T10:33:35;42.71;30.34;53.53;;
43938;Laerm;71382;47.750;10.226;2023-08-20T10:36:08;33.59;29.90;41.27;;
43938;Laerm;71382;47.750;10.226;2023-08-20T10:38:37;38.74;29.93;51.06;;
43938;Laerm;71382;47.750;10.226;2023-08-20T10:41:05;38.93;30.30;55.67;;
43938;Laerm;71382;47.750;10.226;2023-08-20T10:43:32;39.95;29.84;56.20;;
43938;Laerm;71382;47.750;10.226;2023-08-20T10:48:32;41.45;29.74;60.82;;
43938;Laerm;71382;47.750;10.226;2023-08-20T10:53:40;42.60;29.91;53.34;;
43938;Laerm;71382;47.750;10.226;2023-08-20T10:56:15;43.16;29.49;58.17;;
43938;Laerm;71382;47.750;10.226;2023-08-20T10:58:42;35.64;29.76;51.77;;
43938;Laerm;71382;47.750;10.226;2023-08-20T11:01:21;37.06;29.74;47.57;;
43938;Laerm;71382;47.750;10.226;2023-08-20T11:03:50;39.38;29.63;50.85;;
43938;Laerm;71382;47.750;10.226;2023-08-20T11:06:16;34.12;29.62;44.79;;
43938;Laerm;71382;47.750;10.226;2023-08-20T11:08:42;31.88;29.68;40.46;;
43938;Laerm;71382;47.750;10.226;2023-08-20T11:11:08;36.30;29.61;46.55;;
43938;Laerm;71382;47.750;10.226;2023-08-20T11:13:34;40.87;30.06;48.72;;
43938;Laerm;71382;47.750;10.226;2023-08-20T11:16:01;39.02;29.84;55.58;;
43938;Laerm;71382;47.750;10.226;2023-08-20T11:18:27;44.95;29.75;64.67;;
43938;Laerm;71382;47.750;10.226;2023-08-20T11:20:53;35.56;29.52;45.97;;
43938;Laerm;71382;47.750;10.226;2023-08-20T11:23:20;47.86;30.08;62.29;;
43938;Laerm;71382;47.750;10.226;2023-08-20T11:25:45;41.61;30.24;54.92;;
43938;Laerm;71382;47.750;10.226;2023-08-20T11:28:11;45.07;29.68;53.82;;
43938;Laerm;71382;47.750;10.226;2023-08-20T11:30:36;36.82;30.16;46.66;;
43938;Laerm;71382;47.750;10.226;2023-08-20T11:33:02;49.93;30.23;66.44;;
43938;Laerm;71382;47.750;10.226;2023-08-20T11:35:27;41.33;30.42;55.15;;
43938;Laerm;71382;47.750;10.226;2023-08-20T11:37:53;45.62;30.58;58.71;;
43938;Laerm;71382;47.750;10.226;2023-08-20T11:40:22;35.40;30.53;45.40;;
43938;Laerm;71382;47.750;10.226;2023-08-20T11:42:48;45.83;30.15;61.92;;
43938;Laerm;71382;47.750;10.226;2023-08-20T11:45:13;46.08;30.07;60.02;;
43938;Laerm;71382;47.750;10.226;2023-08-20T11:47:39;35.82;30.30;48.12;;
43938;Laerm;71382;47.750;10.226;2023-08-20T11:50:05;37.87;30.01;49.01;;
43938;Laerm;71382;47.750;10.226;2023-08-20T11:52:31;35.73;30.09;47.91;;
43938;Laerm;71382;47.750;10.226;2023-08-20T11:54:57;36.60;30.18;45.63;;
43938;Laerm;71382;47.750;10.226;2023-08-20T11:57:23;45.16;30.36;59.95;;
43938;Laerm;71382;47.750;10.226;2023-08-20T11:59:49;46.08;30.08;60.57;;
43938;Laerm;71382;47.750;10.226;2023-08-20T12:02:14;38.99;30.25;54.43;;
43938;Laerm;71382;47.750;10.226;2023-08-20T12:04:39;35.35;29.81;46.70;;
43938;Laerm;71382;47.750;10.226;2023-08-20T12:07:09;35.67;29.62;45.11;;
43938;Laerm;71382;47.750;10.226;2023-08-20T12:09:35;54.49;29.67;69.70;;
43938;Laerm;71382;47.750;10.226;2023-08-20T12:12:01;36.56;30.16;51.28;;
43938;Laerm;71382;47.750;10.226;2023-08-20T12:14:26;46.21;29.63;63.12;;
43938;Laerm;71382;47.750;10.226;2023-08-20T12:16:55;38.53;30.04;52.61;;
43938;Laerm;71382;47.750;10.226;2023-08-20T12:19:21;44.81;29.97;57.14;;
43938;Laerm;71382;47.750;10.226;2023-08-20T12:21:46;44.67;30.88;58.96;;
43938;Laerm;71382;47.750;10.226;2023-08-20T12:24:12;45.69;31.29;57.49;;
43938;Laerm;71382;47.750;10.226;2023-08-20T12:26:38;38.15;30.44;49.44;;
43938;Laerm;71382;47.750;10.226;2023-08-20T12:29:04;38.21;30.20;50.13;;
43938;Laerm;71382;47.750;10.226;2023-08-20T12:31:29;37.85;30.44;53.13;;
43938;Laerm;71382;47.750;10.226;2023-08-20T12:33:55;46.32;29.87;61.90;;
43938;Laerm;71382;47.750;10.226;2023-08-20T12:36:21;35.80;29.92;46.09;;
43938;Laerm;71382;47.750;10.226;2023-08-20T12:38:46;44.20;30.28;56.51;;
43938;Laerm;71382;47.750;10.226;2023-08-20T12:41:11;34.70;29.82;46.91;;
43938;Laerm;71382;47.750;10.226;2023-08-20T12:43:37;40.93;30.30;54.22;;
43938;Laerm;71382;47.750;10.226;2023-08-20T12:46:03;34.56;30.08;43.72;;
43938;Laerm;71382;47.750;10.226;2023-08-20T12:48:29;37.31;30.86;46.88;;
43938;Laerm;71382;47.750;10.226;2023-08-20T12:50:55;56.65;30.93;67.65;;
43938;Laerm;71382;47.750;10.226;2023-08-20T12:53:21;42.57;31.75;56.02;;
43938;Laerm;71382;47.750;10.226;2023-08-20T12:55:46;34.49;30.77;43.31;;
43938;Laerm;71382;47.750;10.226;2023-08-20T12:58:12;48.39;31.17;64.66;;
43938;Laerm;71382;47.750;10.226;2023-08-20T13:00:38;36.80;31.18;47.00;;
43938;Laerm;71382;47.750;10.226;2023-08-20T13:03:03;37.70;30.94;48.15;;
43938;Laerm;71382;47.750;10.226;2023-08-20T13:05:29;51.80;30.34;67.06;;
43938;Laerm;71382;47.750;10.226;2023-08-20T13:07:55;46.49;29.92;60.95;;
43938;Laerm;71382;47.750;10.226;2023-08-20T13:10:21;39.53;29.14;50.81;;
43938;Laerm;71382;47.750;10.226;2023-08-20T13:12:48;38.74;29.30;47.25;;
43938;Laerm;71382;47.750;10.226;2023-08-20T13:15:17;40.89;31.18;55.22;;
43938;Laerm;71382;47.750;10.226;2023-08-20T13:17:45;37.49;29.55;49.22;;
43938;Laerm;71382;47.750;10.226;2023-08-20T13:20:10;37.52;29.58;48.74;;
43938;Laerm;71382;47.750;10.226;2023-08-20T13:22:36;48.41;30.04;62.67;;
43938;Laerm;71382;47.750;10.226;2023-08-20T13:25:02;35.43;31.05;42.99;;
43938;Laerm;71382;47.750;10.226;2023-08-20T13:27:27;47.36;30.32;59.90;;
43938;Laerm;71382;47.750;10.226;2023-08-20T13:29:53;50.16;30.31;67.51;;
43938;Laerm;71382;47.750;10.226;2023-08-20T13:32:18;37.70;30.53;44.99;;
43938;Laerm;71382;47.750;10.226;2023-08-20T13:34:44;54.08;30.35;69.41;;
43938;Laerm;71382;47.750;10.226;2023-08-20T13:37:09;35.35;30.07;45.90;;